createdAt,value
2022-10-18T00:00:14.652Z,70.68
2022-10-18T00:02:41.265Z,70.01
2022-10-18T00:05:08.235Z,69.80
2022-10-18T00:07:34.816Z,70.14
2022-10-18T00:10:01.560Z,69.19
2022-10-18T00:12:28.119Z,69.21
2022-10-18T00:14:54.751Z,69.85
2022-10-18T00:17:21.287Z,70.46
2022-10-18T00:19:49.278Z,70.22
2022-10-18T00:22:15.954Z,70.21
2022-10-18T00:24:42.567Z,69.85
2022-10-18T00:27:09.094Z,70.21
2022-10-18T00:29:35.653Z,70.77
2022-10-18T00:32:02.265Z,70.04
2022-10-18T00:34:29.025Z,70.42
2022-10-18T00:36:56.547Z,69.79
2022-10-18T00:39:23.155Z,70.29
2022-10-18T00:41:50.575Z,69.68
2022-10-18T00:44:17.215Z,70.55
2022-10-18T00:46:46.982Z,70.69
2022-10-18T00:49:22.911Z,70.56
2022-10-18T00:52:05.130Z,70.49
2022-10-18T00:54:37.160Z,70.75
2022-10-18T00:57:04.755Z,71.19
2022-10-18T00:59:31.440Z,71.31
2022-10-18T01:01:58.332Z,72.28
2022-10-18T01:04:25.475Z,71.70
2022-10-18T01:07:20.697Z,71.55
2022-10-18T01:10:08.899Z,71.41
2022-10-18T01:13:09.698Z,71.03
2022-10-18T01:15:58.401Z,72.01
2022-10-18T01:18:44.208Z,70.68
2022-10-18T01:21:29.450Z,70.65
2022-10-18T01:24:26.453Z,71.37
2022-10-18T01:27:24.204Z,72.66
2022-10-18T01:30:12.427Z,73.56
2022-10-18T01:32:52.593Z,75.12
2022-10-18T01:35:26.605Z,74.80
2022-10-18T01:37:57.561Z,75.34
2022-10-18T01:40:25.370Z,76.03
2022-10-18T01:42:53.038Z,75.40
2022-10-18T01:45:22.607Z,76.15
2022-10-18T01:47:50.912Z,76.57
2022-10-18T01:50:29.867Z,77.55
2022-10-18T01:52:57.426Z,75.04
2022-10-18T01:55:32.079Z,73.17
2022-10-18T01:58:25.539Z,74.16
2022-10-18T02:01:03.909Z,75.15
2022-10-18T02:03:30.511Z,75.97
2022-10-18T02:06:00.388Z,76.05
2022-10-18T02:08:47.018Z,75.76
2022-10-18T02:11:15.761Z,77.50
2022-10-18T02:13:47.956Z,78.24
2022-10-18T02:16:20.036Z,78.11
2022-10-18T02:18:55.155Z,78.05
2022-10-18T02:21:23.685Z,79.48
2022-10-18T02:23:50.610Z,80.30
2022-10-18T02:26:17.264Z,81.21
2022-10-18T02:28:44.207Z,83.44
2022-10-18T02:31:16.955Z,84.97
2022-10-18T02:33:58.650Z,85.64
2022-10-18T02:36:59.268Z,86.61
2022-10-18T02:39:31.049Z,86.36
2022-10-18T02:41:58.422Z,87.37
2022-10-18T02:44:25.417Z,90.02
2022-10-18T02:46:52.494Z,92.34
2022-10-18T02:49:19.032Z,97.32
2022-10-18T02:51:45.541Z,98.44
2022-10-18T02:54:12.046Z,100.00
2022-10-18T02:56:38.625Z,100.00
2022-10-18T02:59:07.347Z,100.00
2022-10-18T03:01:36.138Z,100.00
2022-10-18T03:04:03.669Z,100.00
2022-10-18T03:06:30.726Z,100.00
2022-10-18T03:08:57.240Z,100.00
2022-10-18T03:11:24.137Z,100.00
2022-10-18T03:13:51.127Z,100.00
2022-10-18T03:16:18.181Z,100.00
2022-10-18T03:18:44.753Z,100.00
2022-10-18T03:21:11.296Z,100.00
2022-10-18T03:23:37.993Z,100.00
2022-10-18T03:26:04.629Z,100.00
2022-10-18T03:28:31.336Z,100.00
2022-10-18T03:31:04.654Z,100.00
2022-10-18T03:33:32.237Z,100.00
2022-10-18T03:35:58.858Z,100.00
2022-10-18T03:38:25.451Z,100.00
2022-10-18T03:40:51.965Z,100.00
2022-10-18T03:43:18.501Z,100.00
2022-10-18T03:45:45.323Z,100.00
2022-10-18T03:48:11.938Z,100.00
2022-10-18T03:50:38.575Z,100.00
2022-10-18T03:53:05.478Z,100.00
2022-10-18T03:55:34.712Z,100.00
2022-10-18T03:58:01.222Z,100.00
2022-10-18T04:00:27.978Z,100.00
2022-10-18T04:02:55.979Z,100.00
2022-10-18T04:05:28.116Z,100.00
2022-10-18T04:07:55.052Z,100.00
2022-10-18T04:10:21.913Z,100.00
2022-10-18T04:12:48.493Z,100.00
2022-10-18T04:15:15.243Z,100.00
2022-10-18T04:17:42.144Z,100.00
2022-10-18T04:20:09.157Z,100.00
2022-10-18T04:22:35.783Z,100.00
2022-10-18T04:25:02.316Z,100.00
2022-10-18T04:27:29.078Z,100.00
2022-10-18T04:29:55.918Z,100.00
2022-10-18T04:32:22.532Z,100.00
2022-10-18T04:34:49.072Z,100.00
2022-10-18T04:37:15.685Z,100.00
2022-10-18T04:39:49.818Z,100.00
2022-10-18T04:42:19.357Z,100.00
2022-10-18T04:44:45.939Z,100.00
2022-10-18T04:47:12.490Z,100.00
2022-10-18T04:49:39.016Z,100.00
2022-10-18T04:52:05.651Z,100.00
2022-10-18T04:54:32.275Z,100.00
2022-10-18T04:56:58.908Z,100.00
2022-10-18T04:59:25.531Z,100.00
2022-10-18T05:01:52.251Z,100.00
2022-10-18T05:04:18.878Z,100.00
2022-10-18T05:06:45.462Z,100.00
2022-10-18T05:09:12.128Z,100.00
2022-10-18T05:11:38.727Z,100.00
2022-10-18T05:14:05.342Z,100.00
2022-10-18T05:16:32.554Z,100.00
2022-10-18T05:18:59.131Z,100.00
2022-10-18T05:21:25.710Z,100.00
2022-10-18T05:23:56.171Z,100.00
2022-10-18T05:26:22.732Z,100.00
2022-10-18T05:28:50.765Z,100.00
2022-10-18T05:31:17.879Z,100.00
2022-10-18T05:33:44.446Z,100.00
2022-10-18T05:36:11.234Z,100.00
2022-10-18T05:38:42.987Z,100.00
2022-10-18T05:41:10.482Z,100.00
2022-10-18T05:43:37.399Z,100.00
2022-10-18T05:46:07.240Z,100.00
2022-10-18T05:48:36.137Z,100.00
2022-10-18T05:51:02.707Z,100.00
2022-10-18T05:53:37.184Z,100.00
2022-10-18T05:56:05.341Z,100.00
2022-10-18T05:58:31.975Z,100.00
2022-10-18T06:01:02.639Z,100.00
2022-10-18T06:03:30.872Z,100.00
2022-10-18T06:06:10.925Z,100.00
2022-10-18T06:08:38.837Z,100.00
2022-10-18T06:11:20.257Z,100.00
2022-10-18T06:13:48.930Z,100.00
2022-10-18T06:16:17.278Z,100.00
2022-10-18T06:18:47.071Z,100.00
2022-10-18T06:21:13.576Z,100.00
2022-10-18T06:23:40.674Z,100.00
2022-10-18T06:26:10.165Z,100.00
2022-10-18T06:28:38.255Z,100.00
2022-10-18T06:31:06.275Z,100.00
2022-10-18T06:33:34.233Z,100.00
2022-10-18T06:36:04.021Z,100.00
2022-10-18T06:38:30.916Z,100.00
2022-10-18T06:41:00.047Z,100.00
2022-10-18T06:43:27.095Z,100.00
2022-10-18T06:45:54.839Z,100.00
2022-10-18T06:48:22.538Z,100.00
2022-10-18T06:50:57.523Z,100.00
2022-10-18T06:53:32.793Z,100.00
2022-10-18T06:56:04.209Z,100.00
2022-10-18T06:58:31.508Z,100.00
2022-10-18T07:00:58.665Z,100.00
2022-10-18T07:03:26.294Z,100.00
2022-10-18T07:05:52.883Z,100.00
2022-10-18T07:08:19.389Z,100.00
2022-10-18T07:10:55.428Z,100.00
2022-10-18T07:13:38.833Z,100.00
2022-10-18T07:16:14.091Z,100.00
2022-10-18T07:18:49.745Z,100.00
2022-10-18T07:21:19.141Z,100.00
2022-10-18T07:23:46.401Z,100.00
2022-10-18T07:26:25.104Z,93.39
2022-10-18T07:28:55.379Z,87.90
2022-10-18T07:31:25.892Z,85.42
2022-10-18T07:33:54.821Z,83.64
2022-10-18T07:36:22.203Z,81.23
2022-10-18T07:38:49.448Z,79.36
2022-10-18T07:41:15.991Z,79.72
2022-10-18T07:43:45.791Z,77.67
2022-10-18T07:46:13.268Z,74.46
2022-10-18T07:48:40.392Z,71.66
2022-10-18T07:51:07.257Z,70.18
2022-10-18T07:53:34.674Z,68.14
2022-10-18T07:56:08.762Z,66.42
2022-10-18T07:58:36.991Z,66.57
2022-10-18T08:01:04.906Z,66.43
2022-10-18T08:03:31.817Z,65.12
2022-10-18T08:05:58.769Z,63.60
2022-10-18T08:08:26.003Z,63.46
2022-10-18T08:10:52.748Z,63.68
2022-10-18T08:13:19.534Z,61.89
2022-10-18T08:15:47.517Z,60.28
2022-10-18T08:18:14.239Z,57.29
2022-10-18T08:20:45.326Z,55.71
2022-10-18T08:23:11.923Z,55.25
2022-10-18T08:25:38.597Z,56.00
2022-10-18T08:28:05.434Z,56.38
2022-10-18T08:30:32.163Z,56.71
2022-10-18T08:33:00.580Z,55.97
2022-10-18T08:35:27.280Z,53.87
2022-10-18T08:37:54.078Z,54.00
2022-10-18T08:40:20.929Z,52.62
2022-10-18T08:43:21.456Z,52.13
2022-10-18T08:45:50.877Z,51.58
2022-10-18T08:48:42.059Z,51.30
2022-10-18T08:51:35.165Z,49.71
2022-10-18T08:54:11.792Z,49.42
2022-10-18T08:56:41.749Z,49.00
2022-10-18T08:59:12.591Z,47.84
2022-10-18T09:01:54.426Z,47.20
2022-10-18T09:04:57.000Z,49.30
2022-10-18T09:07:53.232Z,48.27
2022-10-18T09:10:37.567Z,47.24
2022-10-18T09:13:19.391Z,46.52
2022-10-18T09:15:51.581Z,46.69
2022-10-18T09:18:34.373Z,45.20
2022-10-18T09:21:07.948Z,44.33
2022-10-18T09:23:40.506Z,44.67
2022-10-18T09:26:24.511Z,43.01
2022-10-18T09:29:28.128Z,42.32
2022-10-18T09:32:19.033Z,44.67
2022-10-18T09:35:39.169Z,43.44
2022-10-18T09:38:11.296Z,43.12
2022-10-18T09:40:50.102Z,42.42
2022-10-18T09:43:22.890Z,43.14
2022-10-18T09:45:52.927Z,41.89
2022-10-18T09:48:41.435Z,42.06
2022-10-18T09:51:35.408Z,40.70
2022-10-18T09:54:12.730Z,41.99
2022-10-18T09:56:46.725Z,41.22
2022-10-18T09:59:46.840Z,43.12
2022-10-18T10:02:24.350Z,40.81
2022-10-18T10:04:52.233Z,39.79
2022-10-18T10:07:24.031Z,40.86
2022-10-18T10:10:06.322Z,39.92
2022-10-18T10:12:38.503Z,40.30
2022-10-18T10:15:23.590Z,39.34
2022-10-18T10:17:59.258Z,39.95
2022-10-18T10:20:35.699Z,38.97
2022-10-18T10:23:08.016Z,40.67
2022-10-18T10:25:38.150Z,40.24
2022-10-18T10:28:14.909Z,39.48
2022-10-18T10:30:41.473Z,39.19
2022-10-18T10:33:37.754Z,39.62
2022-10-18T10:36:16.009Z,40.35
2022-10-18T10:38:42.984Z,40.28
2022-10-18T10:41:21.863Z,40.80
2022-10-18T10:43:50.342Z,40.19
2022-10-18T10:46:19.883Z,38.45
2022-10-18T10:49:15.420Z,38.09
2022-10-18T10:51:43.631Z,36.34
2022-10-18T10:54:17.842Z,38.38
2022-10-18T10:57:04.953Z,37.87
2022-10-18T11:02:17.672Z,34.08
2022-10-18T11:04:50.511Z,35.52
2022-10-18T11:07:36.907Z,35.44
2022-10-18T11:10:05.934Z,34.68
2022-10-18T11:12:38.389Z,34.21
2022-10-18T11:15:12.055Z,36.13
2022-10-18T11:18:17.005Z,37.92
2022-10-18T11:20:55.109Z,36.79
2022-10-18T11:23:28.911Z,35.05
2022-10-18T11:26:07.116Z,35.90
2022-10-18T11:28:36.503Z,36.56
2022-10-18T11:31:16.748Z,36.42
2022-10-18T11:34:09.523Z,36.99
2022-10-18T11:36:54.684Z,35.34
2022-10-18T11:39:31.864Z,36.63
2022-10-18T11:42:07.289Z,36.02
2022-10-18T11:44:58.097Z,35.57
2022-10-18T11:47:52.224Z,35.19
2022-10-18T11:50:36.749Z,35.53
2022-10-18T11:53:07.113Z,37.49
2022-10-18T11:55:56.082Z,37.13
2022-10-18T11:58:44.590Z,34.58
2022-10-18T12:01:36.638Z,35.94
2022-10-18T12:04:21.863Z,35.62
2022-10-18T12:06:52.346Z,36.73
2022-10-18T12:09:41.621Z,34.15
2022-10-18T12:12:15.630Z,34.65
2022-10-18T12:14:48.470Z,34.44
2022-10-18T12:17:43.955Z,34.29
2022-10-18T12:20:23.598Z,34.72
2022-10-18T12:23:06.106Z,34.91
2022-10-18T12:25:36.932Z,32.25
2022-10-18T12:28:17.010Z,33.24
2022-10-18T12:31:07.954Z,34.06
2022-10-18T12:33:56.976Z,33.30
2022-10-18T12:36:52.366Z,33.15
2022-10-18T12:39:43.890Z,33.06
2022-10-18T12:42:20.516Z,31.54
2022-10-18T12:44:47.923Z,32.57
2022-10-18T12:47:25.564Z,32.06
2022-10-18T12:50:06.954Z,33.83
2022-10-18T12:52:36.977Z,33.12
2022-10-18T12:55:17.006Z,32.75
2022-10-18T12:57:53.427Z,31.68
2022-10-18T13:00:32.272Z,33.04
2022-10-18T13:03:14.388Z,33.87
2022-10-18T13:05:54.334Z,33.38
2022-10-18T13:08:27.840Z,33.54
2022-10-18T13:11:29.799Z,33.97
2022-10-18T13:13:59.437Z,35.01
2022-10-18T13:16:37.030Z,33.94
2022-10-18T13:19:25.564Z,35.41
2022-10-18T13:22:19.736Z,34.79
2022-10-18T13:25:14.121Z,35.41
2022-10-18T13:27:48.223Z,36.00
2022-10-18T13:30:23.197Z,36.36
2022-10-18T13:33:03.776Z,37.20
2022-10-18T13:35:49.082Z,38.20
2022-10-18T13:38:52.961Z,37.33
2022-10-18T13:41:25.530Z,37.58
2022-10-18T13:44:11.379Z,36.87
2022-10-18T13:46:37.815Z,36.98
2022-10-18T13:49:22.665Z,35.75
2022-10-18T13:52:16.765Z,37.00
2022-10-18T13:55:16.955Z,36.28
2022-10-18T13:58:07.939Z,36.55
2022-10-18T14:00:49.140Z,37.34
2022-10-18T14:03:55.072Z,37.18
2022-10-18T14:06:18.987Z,36.70
2022-10-18T14:09:25.609Z,38.43
2022-10-18T14:11:57.741Z,39.08
2022-10-18T14:14:45.337Z,38.79
2022-10-18T14:17:33.994Z,39.20
2022-10-18T14:20:27.214Z,38.49
2022-10-18T14:23:14.247Z,38.56
2022-10-18T14:25:41.350Z,38.08
2022-10-18T14:28:31.406Z,38.19
2022-10-18T14:31:18.223Z,37.97
2022-10-18T14:33:57.228Z,37.46
2022-10-18T14:36:39.694Z,37.81
2022-10-18T14:39:16.881Z,38.62
2022-10-18T14:41:57.252Z,38.04
2022-10-18T14:44:31.837Z,38.85
2022-10-18T14:47:02.751Z,39.10
2022-10-18T14:49:29.864Z,39.28
2022-10-18T14:51:59.290Z,39.04
2022-10-18T14:54:31.649Z,39.98
2022-10-18T14:57:00.208Z,41.14
2022-10-18T14:59:29.796Z,41.72
2022-10-18T15:02:05.183Z,41.88
2022-10-18T15:04:35.166Z,41.72
2022-10-18T15:07:08.203Z,42.14
2022-10-18T15:09:36.954Z,42.19
2022-10-18T15:12:05.788Z,41.45
2022-10-18T15:14:33.845Z,41.91
2022-10-18T15:17:08.078Z,42.79
2022-10-18T15:19:36.719Z,43.47
2022-10-18T15:22:30.882Z,43.73
2022-10-18T15:25:08.775Z,44.06
2022-10-18T15:27:39.061Z,44.55
2022-10-18T15:30:16.265Z,44.94
2022-10-18T15:32:52.953Z,45.65
2022-10-18T15:35:33.124Z,46.08
2022-10-18T15:38:14.530Z,46.91
2022-10-18T15:40:42.098Z,47.65
2022-10-18T15:43:23.548Z,47.93
2022-10-18T15:46:05.372Z,48.83
2022-10-18T15:48:41.342Z,49.52
2022-10-18T15:51:19.464Z,50.13
2022-10-18T15:53:52.658Z,50.10
2022-10-18T15:56:34.866Z,50.51
2022-10-18T15:59:20.335Z,50.99
2022-10-18T16:01:47.018Z,51.83
2022-10-18T16:04:33.157Z,52.41
2022-10-18T16:07:00.514Z,52.47
2022-10-18T16:09:29.204Z,52.39
2022-10-18T16:11:57.415Z,52.73
2022-10-18T16:14:26.159Z,52.75
2022-10-18T16:17:02.866Z,53.95
2022-10-18T16:19:30.518Z,54.50
2022-10-18T16:21:57.904Z,54.93
2022-10-18T16:24:25.827Z,54.92
2022-10-18T16:26:53.170Z,55.79
2022-10-18T16:29:28.672Z,55.94
2022-10-18T16:31:58.175Z,56.73
2022-10-18T16:34:27.066Z,57.05
2022-10-18T16:36:53.826Z,56.93
2022-10-18T16:39:21.766Z,57.35
2022-10-18T16:41:48.682Z,57.61
2022-10-18T16:44:16.429Z,57.74
2022-10-18T16:46:43.090Z,58.07
2022-10-18T16:51:52.456Z,58.78
2022-10-18T16:54:19.058Z,58.95
2022-10-18T16:56:47.665Z,59.21
2022-10-18T16:59:31.647Z,59.92
2022-10-18T17:01:58.303Z,60.35
2022-10-18T17:04:24.877Z,59.82
2022-10-18T17:06:54.460Z,60.67
2022-10-18T17:09:20.982Z,60.90
2022-10-18T17:11:47.482Z,61.23
2022-10-18T17:14:13.988Z,61.17
2022-10-18T17:16:45.636Z,61.36
2022-10-18T17:19:15.529Z,62.04
2022-10-18T17:21:42.049Z,62.01
2022-10-18T17:24:08.604Z,62.53
2022-10-18T17:26:35.114Z,62.82
2022-10-18T17:29:05.132Z,63.47
2022-10-18T17:31:32.383Z,63.35
2022-10-18T17:34:01.787Z,64.23
2022-10-18T17:36:31.040Z,63.49
2022-10-18T17:38:58.002Z,64.12
2022-10-18T17:41:24.659Z,64.14
2022-10-18T17:43:51.236Z,64.47
2022-10-18T17:46:18.151Z,64.71
2022-10-18T17:48:45.349Z,65.06
2022-10-18T17:51:14.883Z,66.33
2022-10-18T17:53:41.445Z,65.89
2022-10-18T17:56:08.171Z,66.01
2022-10-18T17:58:35.164Z,66.42
2022-10-18T18:01:19.047Z,67.21
2022-10-18T18:03:47.822Z,67.39
2022-10-18T18:06:20.356Z,67.70
2022-10-18T18:08:47.767Z,68.06
2022-10-18T18:11:14.808Z,68.51
2022-10-18T18:13:41.628Z,69.54
2022-10-18T18:16:23.267Z,69.77
2022-10-18T18:18:52.337Z,69.99
2022-10-18T18:21:19.569Z,70.97
2022-10-18T18:23:48.677Z,70.91
2022-10-18T18:26:15.774Z,71.44
2022-10-18T18:28:42.801Z,71.83
2022-10-18T18:31:13.156Z,72.33
2022-10-18T18:33:39.832Z,74.63
2022-10-18T18:36:07.066Z,73.95
2022-10-18T18:38:34.768Z,73.71
2022-10-18T18:41:13.661Z,73.68
2022-10-18T18:43:46.813Z,73.55
2022-10-18T18:46:13.760Z,72.84
2022-10-18T18:48:41.112Z,73.45
2022-10-18T18:51:13.414Z,73.25
2022-10-18T18:53:42.396Z,73.45
2022-10-18T18:56:14.279Z,74.05
2022-10-18T18:58:44.125Z,74.55
2022-10-18T19:01:15.952Z,75.35
2022-10-18T19:03:43.831Z,75.68
2022-10-18T19:06:14.383Z,74.97
2022-10-18T19:08:42.210Z,76.72
2022-10-18T19:11:09.474Z,78.03
2022-10-18T19:13:36.343Z,77.72
2022-10-18T19:16:20.129Z,77.55
2022-10-18T19:19:01.054Z,78.30
2022-10-18T19:21:33.185Z,79.79
2022-10-18T19:24:00.086Z,80.32
2022-10-18T19:26:32.367Z,81.45
2022-10-18T19:29:16.457Z,81.73
2022-10-18T19:31:44.006Z,81.69
2022-10-18T19:34:12.436Z,82.60
2022-10-18T19:36:41.977Z,83.52
2022-10-18T19:39:12.153Z,83.57
2022-10-18T19:41:50.815Z,83.86
2022-10-18T19:44:19.293Z,85.09
2022-10-18T19:46:47.124Z,85.59
2022-10-18T19:49:15.833Z,86.94
2022-10-18T19:51:43.055Z,87.22
2022-10-18T19:54:13.735Z,87.60
2022-10-18T19:56:41.801Z,87.04
2022-10-18T19:59:10.050Z,86.70
2022-10-18T20:01:39.424Z,87.46
2022-10-18T20:04:07.400Z,88.11
2022-10-18T20:06:39.067Z,88.20
2022-10-18T20:09:12.390Z,88.38
2022-10-18T20:11:41.737Z,87.87
2022-10-18T20:14:09.802Z,87.49
2022-10-18T20:16:37.053Z,87.56
2022-10-18T20:19:07.261Z,88.58
2022-10-18T20:21:36.260Z,88.98
2022-10-18T20:24:07.594Z,89.84
2022-10-18T20:26:35.901Z,90.19
2022-10-18T20:29:03.212Z,90.36
2022-10-18T20:31:39.361Z,91.05
2022-10-18T20:34:11.863Z,92.13
2022-10-18T20:36:39.384Z,92.87
2022-10-18T20:39:07.010Z,93.40
2022-10-18T20:41:36.583Z,92.79
2022-10-18T20:44:07.123Z,92.80
2022-10-18T20:46:36.281Z,94.32
2022-10-18T20:49:04.126Z,94.44
2022-10-18T20:51:30.778Z,94.60
2022-10-18T20:53:57.659Z,93.87
2022-10-18T20:56:27.210Z,93.84
2022-10-18T20:58:56.435Z,94.59
2022-10-18T21:01:28.363Z,95.65
2022-10-18T21:03:57.312Z,96.95
2022-10-18T21:06:26.311Z,97.85
2022-10-18T21:09:00.857Z,97.89
2022-10-18T21:11:29.179Z,97.76
2022-10-18T21:13:59.572Z,97.28
2022-10-18T21:16:27.229Z,96.18
2022-10-18T21:18:53.848Z,95.79
2022-10-18T21:21:23.445Z,96.26
2022-10-18T21:23:51.180Z,96.34
2022-10-18T21:26:22.190Z,96.95
2022-10-18T21:28:59.508Z,97.85
2022-10-18T21:31:29.245Z,98.32
2022-10-18T21:33:58.291Z,97.28
2022-10-18T21:36:25.909Z,97.46
2022-10-18T21:38:52.661Z,97.62
2022-10-18T21:41:21.006Z,97.27
2022-10-18T21:43:50.367Z,96.78
2022-10-18T21:46:18.877Z,96.66
2022-10-18T21:48:50.611Z,97.05
2022-10-18T21:51:19.408Z,98.64
2022-10-18T21:53:47.934Z,97.62
2022-10-18T21:56:19.830Z,97.79
2022-10-18T21:58:47.019Z,97.29
2022-10-18T22:01:28.378Z,96.02
2022-10-18T22:03:56.654Z,96.55
2022-10-18T22:06:24.131Z,97.16
2022-10-18T22:08:56.245Z,98.89
2022-10-18T22:11:27.034Z,99.63
2022-10-18T22:13:54.140Z,99.42
2022-10-18T22:16:21.011Z,98.96
2022-10-18T22:18:49.135Z,98.76
2022-10-18T22:21:18.264Z,100.00
2022-10-18T22:23:48.083Z,100.00
2022-10-18T22:26:22.759Z,100.00
2022-10-18T22:28:56.684Z,100.00
2022-10-18T22:31:25.491Z,100.00
2022-10-18T22:33:57.130Z,100.00
2022-10-18T22:36:25.887Z,100.00
2022-10-18T22:38:52.511Z,100.00
2022-10-18T22:41:19.179Z,100.00
2022-10-18T22:43:47.687Z,100.00
2022-10-18T22:46:15.301Z,100.00
2022-10-18T22:48:42.899Z,100.00
2022-10-18T22:51:10.033Z,100.00
2022-10-18T22:53:37.355Z,100.00
2022-10-18T22:56:05.676Z,100.00
2022-10-18T22:58:32.864Z,100.00
2022-10-18T23:01:05.095Z,100.00
2022-10-18T23:03:31.727Z,100.00
2022-10-18T23:05:58.653Z,100.00
2022-10-18T23:08:25.345Z,100.00
2022-10-18T23:10:57.088Z,100.00
2022-10-18T23:13:25.364Z,100.00
2022-10-18T23:15:52.284Z,100.00
2022-10-18T23:18:20.692Z,100.00
2022-10-18T23:20:47.255Z,100.00
2022-10-18T23:23:14.107Z,100.00
2022-10-18T23:25:40.700Z,100.00
2022-10-18T23:28:07.233Z,100.00
2022-10-18T23:30:34.327Z,100.00
2022-10-18T23:33:00.914Z,100.00
2022-10-18T23:35:27.486Z,100.00
2022-10-18T23:37:53.996Z,100.00
2022-10-18T23:40:20.577Z,100.00
2022-10-18T23:42:47.165Z,100.00
2022-10-18T23:45:13.687Z,100.00
2022-10-18T23:47:40.218Z,100.00
2022-10-18T23:50:07.102Z,100.00
2022-10-18T23:52:33.636Z,100.00
2022-10-18T23:55:00.163Z,100.00
2022-10-18T23:57:26.688Z,100.00
2022-10-18T23:59:53.191Z,100.00
